Time;durP1;ratioP1;P1;durP2;ratioP2;P2;SDS_P1;SDS_P2;PMS_P1;PMS_P2;Temp;Humidity;BMP_temperature;BMP_pressure;BME280_temperature;BME280_humidity;BME280_pressure;Samples;Min_cycle;Max_cycle;Signal;HPM_P1;HPM_P2
2022/01/20 00:00:33;;;;;;;1.10;1.00;;;3.70;98.00;;;;;;5091107;28;20487;-66
2022/01/20 00:03:10;;;;;;;1.63;1.40;;;3.60;98.00;;;;;;5091390;28;20459;-66
2022/01/20 00:06:00;;;;;;;1.10;1.10;;;3.60;98.00;;;;;;5091457;28;20948;-66
2022/01/20 00:08:35;;;;;;;1.10;0.90;;;3.50;98.00;;;;;;5091263;28;20503;-66
2022/01/20 00:27:36;;;;;;;1.20;1.20;;;3.70;98.00;;;;;;5091386;28;20949;-66
2022/01/20 00:30:28;;;;;;;1.40;1.37;;;3.80;98.00;;;;;;5091207;28;20470;-66
2022/01/20 00:33:03;;;;;;;1.40;1.30;;;3.80;98.00;;;;;;5091092;28;20486;-66
2022/01/20 00:37:14;;;;;;;1.10;1.00;;;3.60;98.00;;;;;;5091171;28;20490;-66
2022/01/20 00:38:16;;;;;;;1.10;1.03;;;3.70;98.00;;;;;;5089705;28;20456;-66
2022/01/20 00:40:44;;;;;;;1.53;1.30;;;3.60;98.00;;;;;;5090938;28;20459;-66
2022/01/20 00:43:11;;;;;;;1.10;0.90;;;3.50;98.00;;;;;;5091014;28;20487;-66
2022/01/20 00:45:38;;;;;;;1.20;1.13;;;3.50;98.00;;;;;;5091030;28;21037;-66
2022/01/20 00:48:07;;;;;;;1.43;1.37;;;3.50;98.00;;;;;;5089537;28;20997;-66
2022/01/20 00:50:35;;;;;;;1.20;1.13;;;3.50;98.00;;;;;;5091136;28;20554;-66
2022/01/20 00:53:04;;;;;;;1.20;1.10;;;3.40;98.00;;;;;;5091508;28;20458;-66
2022/01/20 00:55:32;;;;;;;2.80;1.70;;;3.60;98.00;;;;;;5095126;28;20480;-66
2022/01/20 00:57:59;;;;;;;1.63;1.20;;;3.60;98.00;;;;;;5095130;28;20483;-67
2022/01/20 01:00:26;;;;;;;1.50;1.40;;;3.70;98.00;;;;;;5094951;28;20456;-66
2022/01/20 01:02:53;;;;;;;2.50;1.30;;;3.80;98.00;;;;;;5094557;28;20516;-66
2022/01/20 01:05:21;;;;;;;1.20;1.10;;;3.90;98.00;;;;;;5094815;28;20523;-66
2022/01/20 01:07:50;;;;;;;2.60;1.73;;;4.00;98.00;;;;;;5094663;28;20486;-66
2022/01/20 01:10:19;;;;;;;1.10;0.90;;;4.00;98.00;;;;;;5095025;28;20451;-66
2022/01/20 01:12:51;;;;;;;1.20;1.10;;;4.00;98.00;;;;;;5094534;28;20455;-67
2022/01/20 01:15:22;;;;;;;1.20;1.10;;;4.00;98.00;;;;;;5094792;28;20505;-66
2022/01/20 01:20:57;;;;;;;1.30;1.20;;;3.90;98.00;;;;;;5094730;28;20447;-66
2022/01/20 01:23:23;;;;;;;1.50;1.43;;;3.80;98.00;;;;;;5094464;28;20458;-66
2022/01/20 01:25:50;;;;;;;1.40;1.10;;;3.80;98.00;;;;;;5094341;28;20549;-66
2022/01/20 01:28:19;;;;;;;1.90;1.80;;;3.80;98.00;;;;;;5094337;28;20460;-66
2022/01/20 01:31:09;;;;;;;1.10;1.00;;;3.80;98.00;;;;;;5094232;28;20464;-66
2022/01/20 01:33:39;;;;;;;1.10;1.00;;;3.90;98.00;;;;;;5094489;28;20452;-66
2022/01/20 01:36:12;;;;;;;1.10;1.00;;;3.80;98.00;;;;;;5094260;28;20891;-66
2022/01/20 01:38:41;;;;;;;1.23;1.10;;;3.90;98.00;;;;;;5094271;28;20460;-66
2022/01/20 01:41:11;;;;;;;1.10;0.90;;;3.90;98.00;;;;;;5094515;28;20534;-66
2022/01/20 01:43:41;;;;;;;1.10;1.00;;;3.90;98.00;;;;;;5094342;28;20481;-66
2022/01/20 01:46:09;;;;;;;1.10;1.00;;;3.80;98.00;;;;;;5094022;28;20522;-66
2022/01/20 01:48:36;;;;;;;1.77;1.60;;;3.80;98.00;;;;;;5093140;28;20457;-66
2022/01/20 01:51:03;;;;;;;1.37;1.33;;;3.80;98.00;;;;;;5092918;28;20513;-66
2022/01/20 01:53:31;;;;;;;1.20;1.07;;;3.90;98.00;;;;;;5092863;28;20503;-66
2022/01/20 01:55:58;;;;;;;1.10;1.00;;;3.80;98.00;;;;;;5092702;28;20488;-66
2022/01/20 01:58:25;;;;;;;1.10;1.00;;;3.90;98.00;;;;;;5092674;28;20497;-66
2022/01/20 02:00:52;;;;;;;1.10;1.00;;;3.90;98.00;;;;;;5092574;28;20463;-65
2022/01/20 02:03:19;;;;;;;1.10;1.00;;;3.90;98.00;;;;;;5092579;28;20499;-66
2022/01/20 02:06:03;;;;;;;1.20;1.00;;;3.90;98.00;;;;;;5091908;28;20480;-66
2022/01/20 02:08:39;;;;;;;1.10;1.00;;;3.80;98.00;;;;;;5092478;28;20466;-66
2022/01/20 02:19:20;;;;;;;1.10;0.90;;;3.50;98.00;;;;;;5092351;28;20468;-66
2022/01/20 02:21:52;;;;;;;1.10;1.00;;;3.40;98.00;;;;;;5092208;28;20459;-65
2022/01/20 02:24:20;;;;;;;1.10;0.90;;;3.40;98.00;;;;;;5090975;28;20534;-66
2022/01/20 02:26:47;;;;;;;1.10;1.10;;;3.40;98.00;;;;;;5091983;28;20553;-66
2022/01/20 02:29:16;;;;;;;1.10;1.00;;;3.40;98.00;;;;;;5092206;28;20476;-66
2022/01/20 02:31:43;;;;;;;1.50;1.47;;;3.40;98.00;;;;;;5090640;28;20488;-65
2022/01/20 02:34:12;;;;;;;1.10;1.00;;;3.40;98.00;;;;;;5092077;28;20532;-66
2022/01/20 02:36:43;;;;;;;1.10;0.90;;;3.50;98.00;;;;;;5092110;28;20459;-66
2022/01/20 02:39:26;;;;;;;1.93;1.83;;;3.40;98.00;;;;;;5092242;28;20450;-65
2022/01/20 02:44:52;;;;;;;2.50;1.43;;;3.40;98.00;;;;;;5092063;28;20529;-66
2022/01/20 02:47:23;;;;;;;1.10;1.00;;;3.50;98.00;;;;;;5051739;28;1148852;-66
2022/01/20 02:49:50;;;;;;;1.10;1.00;;;3.50;98.00;;;;;;5092876;28;20233;-66
2022/01/20 02:52:19;;;;;;;1.10;0.90;;;3.40;98.00;;;;;;5092653;28;20543;-66
2022/01/20 02:54:50;;;;;;;1.17;1.13;;;3.40;98.00;;;;;;5092703;28;20513;-66
2022/01/20 02:57:17;;;;;;;1.10;1.00;;;3.30;98.00;;;;;;5092807;28;20525;-66
2022/01/20 02:59:44;;;;;;;1.10;1.10;;;3.30;98.00;;;;;;5091381;28;20502;-67
2022/01/20 03:02:11;;;;;;;1.10;1.00;;;3.20;98.00;;;;;;5092649;28;21001;-66
2022/01/20 03:04:39;;;;;;;1.10;1.00;;;3.20;98.00;;;;;;5091483;28;20869;-66
2022/01/20 03:07:07;;;;;;;1.27;1.20;;;3.20;98.00;;;;;;5092617;28;20476;-66
2022/01/20 03:09:35;;;;;;;1.10;1.10;;;3.10;98.00;;;;;;5092890;28;20488;-65
2022/01/20 03:12:05;;;;;;;1.10;1.00;;;3.20;98.00;;;;;;5092697;28;20459;-66
2022/01/20 03:14:32;;;;;;;1.10;0.90;;;3.20;98.00;;;;;;5092567;28;20455;-66
2022/01/20 03:16:59;;;;;;;1.10;1.00;;;3.20;98.00;;;;;;5091576;28;20574;-66
2022/01/20 03:19:26;;;;;;;1.10;1.00;;;3.10;98.00;;;;;;5092454;28;20878;-66
2022/01/20 03:21:53;;;;;;;1.10;1.00;;;3.20;98.00;;;;;;5092224;28;20517;-66
2022/01/20 03:24:20;;;;;;;1.37;1.27;;;3.10;98.00;;;;;;5092228;28;20487;-66
2022/01/20 03:26:49;;;;;;;1.10;1.00;;;3.10;98.00;;;;;;5091996;28;20515;-65
2022/01/20 03:29:18;;;;;;;1.10;1.00;;;3.10;98.00;;;;;;5092232;28;20456;-65
2022/01/20 03:31:45;;;;;;;1.10;1.00;;;3.10;98.00;;;;;;5092025;28;20474;-66
2022/01/20 03:34:12;;;;;;;1.20;1.20;;;3.10;98.00;;;;;;5092134;28;20505;-66
2022/01/20 03:36:39;;;;;;;1.10;1.10;;;3.10;98.00;;;;;;5091991;28;20946;-66
2022/01/20 03:39:06;;;;;;;1.30;1.23;;;3.20;98.00;;;;;;5090897;28;20514;-66
2022/01/20 03:41:33;;;;;;;1.10;1.03;;;3.20;98.00;;;;;;5092053;28;20531;-66
2022/01/20 03:44:03;;;;;;;1.10;1.00;;;3.20;98.00;;;;;;5091963;28;21011;-66
2022/01/20 03:46:32;;;;;;;1.10;0.90;;;3.20;98.00;;;;;;5092445;28;20574;-65
2022/01/20 03:49:08;;;;;;;1.10;1.00;;;3.20;98.00;;;;;;5092314;28;20479;-66
2022/01/20 03:51:35;;;;;;;1.30;1.20;;;3.20;98.00;;;;;;5092925;28;20451;-65
2022/01/20 03:54:04;;;;;;;1.10;0.90;;;3.30;98.00;;;;;;5091940;28;20452;-66
2022/01/20 03:56:32;;;;;;;1.30;1.30;;;3.30;98.00;;;;;;5091297;28;20479;-66
2022/01/20 03:59:02;;;;;;;1.10;1.00;;;3.40;98.00;;;;;;5091723;28;20491;-66
2022/01/20 04:01:31;;;;;;;1.10;0.90;;;3.40;98.00;;;;;;5091557;28;20546;-66
2022/01/20 04:03:58;;;;;;;1.10;1.00;;;3.30;98.00;;;;;;5091533;28;20488;-66
2022/01/20 04:06:27;;;;;;;1.20;1.13;;;3.30;98.00;;;;;;5091461;28;21002;-66
2022/01/20 04:08:55;;;;;;;1.10;1.00;;;3.30;98.00;;;;;;5091239;28;20451;-66
2022/01/20 04:11:24;;;;;;;1.10;0.97;;;3.30;98.00;;;;;;5091430;28;20674;-66
2022/01/20 04:13:51;;;;;;;1.10;1.00;;;3.30;98.00;;;;;;5091302;28;20479;-66
2022/01/20 04:16:21;;;;;;;1.20;1.10;;;3.40;98.00;;;;;;5091501;28;20816;-66
2022/01/20 04:18:54;;;;;;;1.10;1.00;;;3.30;98.00;;;;;;5091573;28;20452;-66
2022/01/20 04:21:22;;;;;;;1.20;1.10;;;3.30;98.00;;;;;;5091291;28;20938;-66
2022/01/20 04:23:49;;;;;;;1.27;1.13;;;3.30;98.00;;;;;;5091254;28;20492;-66
2022/01/20 04:26:19;;;;;;;1.10;1.00;;;3.30;98.00;;;;;;5091075;28;20520;-66
2022/01/20 04:28:46;;;;;;;1.10;1.00;;;3.30;98.00;;;;;;5091224;28;20865;-66
2022/01/20 04:31:14;;;;;;;1.10;0.90;;;3.30;98.00;;;;;;5091229;28;20464;-65
2022/01/20 04:33:41;;;;;;;1.80;1.33;;;3.40;98.00;;;;;;5091363;28;20448;-66
2022/01/20 04:36:09;;;;;;;1.10;1.00;;;3.40;98.00;;;;;;5091161;28;20463;-65
2022/01/20 04:38:36;;;;;;;1.10;0.90;;;3.40;98.00;;;;;;5090943;28;20517;-66
2022/01/20 04:41:04;;;;;;;1.10;0.90;;;3.40;98.00;;;;;;5090999;28;20509;-66
2022/01/20 04:43:31;;;;;;;1.10;1.00;;;3.40;98.00;;;;;;5089826;28;20456;-66
2022/01/20 04:46:04;;;;;;;1.10;1.00;;;3.50;98.00;;;;;;5090912;28;20597;-66
2022/01/20 04:48:45;;;;;;;1.10;1.00;;;3.60;98.00;;;;;;5091020;28;20483;-66
2022/01/20 04:57:06;;;;;;;1.10;1.00;;;3.50;98.00;;;;;;5090754;28;20501;-66
2022/01/20 04:59:34;;;;;;;1.10;0.97;;;3.50;98.00;;;;;;5090972;28;20462;-66
2022/01/20 05:02:01;;;;;;;1.10;1.00;;;3.50;98.00;;;;;;5090859;28;20871;-66
2022/01/20 05:04:28;;;;;;;1.10;1.10;;;3.40;98.00;;;;;;5090898;28;20520;-66
2022/01/20 05:06:58;;;;;;;1.10;1.00;;;3.50;98.00;;;;;;5090398;28;20562;-66
2022/01/20 05:09:26;;;;;;;1.10;1.07;;;3.50;98.00;;;;;;5090767;28;20505;-66
2022/01/20 05:11:59;;;;;;;1.10;0.90;;;3.50;98.00;;;;;;5090734;28;20459;-66
2022/01/20 05:14:32;;;;;;;1.10;1.00;;;3.50;98.00;;;;;;5090811;28;20466;-66
2022/01/20 05:17:00;;;;;;;1.10;0.90;;;3.50;98.00;;;;;;5090612;28;20494;-66
2022/01/20 05:19:36;;;;;;;1.20;1.10;;;3.60;98.00;;;;;;5090563;28;20448;-66
2022/01/20 05:22:04;;;;;;;1.10;1.00;;;3.60;98.00;;;;;;5090642;28;20448;-66
2022/01/20 05:24:31;;;;;;;1.10;1.00;;;3.60;98.00;;;;;;5090517;28;20543;-66
2022/01/20 05:26:59;;;;;;;1.10;0.90;;;3.60;98.00;;;;;;5090499;28;20519;-66
2022/01/20 05:29:26;;;;;;;1.10;1.03;;;3.70;98.00;;;;;;5090529;28;20494;-66
2022/01/20 05:31:54;;;;;;;1.10;0.93;;;3.80;98.00;;;;;;5090621;28;20935;-66
2022/01/20 05:34:21;;;;;;;1.10;1.10;;;3.70;98.00;;;;;;5090543;28;20483;-66
2022/01/20 05:36:48;;;;;;;1.10;1.00;;;3.70;98.00;;;;;;5090709;28;20503;-66
2022/01/20 05:39:18;;;;;;;1.57;1.17;;;3.80;98.00;;;;;;5091462;28;20484;-66
2022/01/20 05:41:45;;;;;;;1.10;0.93;;;3.80;98.00;;;;;;5094205;28;20876;-66
2022/01/20 05:44:12;;;;;;;1.10;1.03;;;3.80;98.00;;;;;;5093908;28;20540;-66
2022/01/20 05:46:46;;;;;;;1.40;1.17;;;3.70;98.00;;;;;;5093980;28;20527;-65
2022/01/20 05:49:20;;;;;;;1.10;1.00;;;3.70;98.00;;;;;;5094046;28;20789;-65
2022/01/20 05:51:52;;;;;;;1.10;1.03;;;3.70;98.00;;;;;;5093904;28;20461;-66
2022/01/20 05:54:20;;;;;;;1.83;1.60;;;3.60;98.00;;;;;;5093740;28;20456;-66
2022/01/20 05:56:48;;;;;;;1.40;1.10;;;3.70;98.00;;;;;;5094033;28;20531;-66
2022/01/20 05:59:15;;;;;;;1.10;0.90;;;3.70;98.00;;;;;;5094264;28;20448;-66
2022/01/20 06:01:45;;;;;;;1.10;1.00;;;3.80;98.00;;;;;;5094055;28;20703;-66
2022/01/20 06:04:12;;;;;;;1.10;0.90;;;3.80;98.00;;;;;;5093980;28;20452;-66
2022/01/20 06:06:39;;;;;;;1.10;1.00;;;3.90;98.00;;;;;;5093828;28;20523;-66
2022/01/20 06:09:08;;;;;;;1.10;0.90;;;4.00;98.00;;;;;;5093861;28;20509;-66
2022/01/20 06:11:36;;;;;;;1.10;1.00;;;3.90;98.00;;;;;;5093845;28;20484;-66
2022/01/20 06:14:03;;;;;;;1.17;1.03;;;3.90;98.00;;;;;;5093593;28;20460;-66
2022/01/20 06:16:30;;;;;;;1.10;0.90;;;3.90;98.00;;;;;;5093468;28;20452;-66
2022/01/20 06:18:57;;;;;;;1.10;1.00;;;3.80;98.00;;;;;;5093525;28;20459;-66
2022/01/20 06:21:24;;;;;;;1.10;0.90;;;3.80;98.00;;;;;;5093265;28;20946;-66
2022/01/20 06:24:01;;;;;;;1.10;1.10;;;3.90;98.00;;;;;;5092120;28;20496;-66
2022/01/20 06:26:28;;;;;;;1.10;1.10;;;3.90;98.00;;;;;;5093015;28;20517;-66
2022/01/20 06:28:56;;;;;;;1.10;1.00;;;3.90;98.00;;;;;;5092119;28;20487;-66
2022/01/20 06:31:23;;;;;;;1.40;1.30;;;4.00;98.00;;;;;;5093123;28;20492;-66
2022/01/20 06:33:50;;;;;;;1.10;1.00;;;4.10;98.00;;;;;;5093448;28;20897;-66
2022/01/20 06:36:17;;;;;;;1.10;1.07;;;4.10;98.00;;;;;;5093024;28;20452;-66
2022/01/20 06:38:44;;;;;;;1.10;1.10;;;4.20;98.00;;;;;;5093453;28;20480;-66
2022/01/20 06:41:12;;;;;;;1.10;0.90;;;4.10;98.00;;;;;;5092855;28;20452;-66
2022/01/20 06:43:39;;;;;;;1.10;0.90;;;4.10;98.00;;;;;;5093030;28;20495;-66
2022/01/20 06:46:07;;;;;;;1.10;0.90;;;4.00;98.00;;;;;;5092713;28;20515;-66
2022/01/20 06:48:34;;;;;;;1.77;1.43;;;4.00;98.00;;;;;;5092956;28;20460;-66
2022/01/20 06:51:01;;;;;;;1.10;1.00;;;3.90;98.00;;;;;;5091674;28;20517;-66
2022/01/20 06:53:28;;;;;;;1.10;1.10;;;4.00;98.00;;;;;;5091442;28;20551;-66
2022/01/20 06:55:55;;;;;;;1.10;1.00;;;4.00;98.00;;;;;;5092792;28;20883;-67
2022/01/20 06:58:23;;;;;;;1.30;1.10;;;4.10;98.00;;;;;;5092800;28;20560;-66
2022/01/20 07:00:50;;;;;;;5.37;1.30;;;4.10;98.00;;;;;;5091553;28;20442;-66
2022/01/20 07:03:18;;;;;;;1.10;1.00;;;4.10;98.00;;;;;;5092471;28;20452;-66
2022/01/20 07:05:45;;;;;;;1.10;1.10;;;4.10;98.00;;;;;;5092528;28;20452;-66
2022/01/20 07:08:12;;;;;;;1.10;0.90;;;4.00;98.00;;;;;;5092399;28;21070;-66
2022/01/20 07:10:39;;;;;;;1.10;0.97;;;4.10;98.00;;;;;;5092432;28;20491;-68
2022/01/20 07:13:07;;;;;;;1.30;1.20;;;4.00;98.00;;;;;;5092194;28;20535;-67
2022/01/20 07:15:34;;;;;;;1.10;0.90;;;4.20;98.00;;;;;;5092337;28;20536;-66
2022/01/20 07:18:01;;;;;;;1.90;1.20;;;4.10;98.00;;;;;;5092435;28;20491;-66
2022/01/20 07:20:30;;;;;;;1.10;1.00;;;4.20;98.00;;;;;;5092492;28;20479;-66
2022/01/20 07:22:57;;;;;;;1.70;1.60;;;4.20;98.00;;;;;;5092540;28;20460;-66
2022/01/20 07:25:24;;;;;;;1.10;0.90;;;4.20;98.00;;;;;;5092287;28;20495;-66
2022/01/20 07:27:51;;;;;;;1.10;1.00;;;4.30;98.00;;;;;;5092012;28;20542;-66
2022/01/20 07:30:19;;;;;;;1.10;1.00;;;4.30;98.00;;;;;;5092312;28;20986;-66
2022/01/20 07:32:46;;;;;;;1.30;1.27;;;4.30;98.00;;;;;;5092042;28;20463;-66
2022/01/20 07:35:15;;;;;;;1.50;1.40;;;4.10;98.00;;;;;;5091942;28;20451;-66
2022/01/20 07:37:43;;;;;;;1.40;1.30;;;4.10;98.00;;;;;;5091995;28;20476;-66
2022/01/20 07:40:12;;;;;;;1.10;0.97;;;4.00;98.00;;;;;;5091804;28;20491;-66
2022/01/20 07:42:39;;;;;;;1.70;1.20;;;4.00;98.00;;;;;;5091981;28;20454;-66
2022/01/20 07:45:06;;;;;;;1.10;1.00;;;3.90;98.00;;;;;;5091787;28;20452;-67
2022/01/20 07:47:34;;;;;;;1.10;1.10;;;4.00;98.00;;;;;;5091241;28;20532;-66
2022/01/20 07:50:01;;;;;;;1.67;1.30;;;3.90;98.00;;;;;;5091825;28;20463;-66
2022/01/20 07:52:28;;;;;;;1.13;1.03;;;3.90;98.00;;;;;;5091098;28;20495;-66
2022/01/20 07:54:56;;;;;;;1.10;1.00;;;3.90;98.00;;;;;;5091770;28;20828;-67
2022/01/20 07:57:23;;;;;;;1.10;1.00;;;3.90;98.00;;;;;;5091567;28;20447;-66
2022/01/20 07:59:50;;;;;;;1.67;1.33;;;4.00;98.00;;;;;;5090390;28;20536;-65
2022/01/20 08:02:17;;;;;;;1.57;1.20;;;3.90;98.00;;;;;;5091277;28;20874;-66
2022/01/20 08:04:44;;;;;;;1.57;1.47;;;3.90;98.00;;;;;;5091503;28;20878;-65
2022/01/20 08:07:11;;;;;;;1.10;0.90;;;4.00;98.00;;;;;;5091357;28;20523;-66
2022/01/20 08:09:38;;;;;;;2.33;2.00;;;4.10;98.00;;;;;;5091287;28;20974;-66
2022/01/20 08:12:08;;;;;;;1.10;0.90;;;4.20;98.00;;;;;;5091348;28;20461;-66
2022/01/20 08:14:35;;;;;;;1.50;1.40;;;4.20;98.00;;;;;;5091649;28;20550;-66
2022/01/20 08:17:02;;;;;;;1.63;1.53;;;4.30;98.00;;;;;;5091214;28;20517;-66
2022/01/20 08:19:29;;;;;;;1.37;1.30;;;4.20;98.00;;;;;;5091461;28;20488;-66
2022/01/20 08:21:56;;;;;;;1.10;1.00;;;4.10;98.00;;;;;;5091214;28;20499;-66
2022/01/20 08:24:23;;;;;;;1.20;1.00;;;4.10;98.00;;;;;;5090924;28;20583;-65
2022/01/20 08:26:50;;;;;;;1.10;1.00;;;4.10;98.00;;;;;;5090908;28;20533;-66
2022/01/20 08:29:21;;;;;;;1.10;1.00;;;4.20;98.00;;;;;;5091142;28;20542;-66
2022/01/20 08:31:48;;;;;;;1.17;1.07;;;4.20;98.00;;;;;;5091216;28;20459;-66
2022/01/20 08:34:15;;;;;;;1.10;1.00;;;4.20;98.00;;;;;;5091072;28;20479;-66
2022/01/20 08:36:44;;;;;;;1.10;0.90;;;4.30;98.00;;;;;;5090000;28;20818;-66
2022/01/20 08:41:55;;;;;;;1.10;0.90;;;4.40;98.00;;;;;;5090520;28;20439;-66
2022/01/20 08:44:24;;;;;;;1.20;1.10;;;4.30;98.00;;;;;;5091699;28;20453;-66
2022/01/20 08:46:52;;;;;;;1.10;0.90;;;4.40;98.00;;;;;;5091113;28;20997;-68
2022/01/20 08:49:19;;;;;;;1.10;1.00;;;4.40;98.00;;;;;;5089413;28;20528;-67
2022/01/20 08:51:46;;;;;;;1.10;0.90;;;4.40;98.00;;;;;;5099138;28;20597;-68
2022/01/20 08:54:14;;;;;;;1.10;1.00;;;4.50;98.00;;;;;;5082738;28;20456;-68
2022/01/20 08:56:42;;;;;;;1.10;1.00;;;4.50;98.00;;;;;;5107020;28;20984;-66
2022/01/20 08:59:10;;;;;;;1.10;1.00;;;4.40;98.00;;;;;;5090058;28;20551;-66
2022/01/20 09:01:40;;;;;;;1.10;0.90;;;4.40;98.00;;;;;;5097997;28;20551;-67
2022/01/20 09:04:08;;;;;;;1.10;0.90;;;4.40;98.00;;;;;;5100673;28;20543;-67
2022/01/20 09:06:35;;;;;;;1.10;1.10;;;4.40;98.00;;;;;;5098653;28;20825;-67
2022/01/20 09:09:04;;;;;;;1.10;1.03;;;4.40;98.00;;;;;;5070391;28;20489;-67
2022/01/20 09:11:36;;;;;;;1.10;1.00;;;4.60;98.00;;;;;;5106216;28;20926;-66
2022/01/20 09:16:50;;;;;;;1.77;1.10;;;4.60;98.00;;;;;;5105163;28;20604;-67
2022/01/20 09:19:18;;;;;;;1.10;1.00;;;4.60;98.00;;;;;;5105992;28;20500;-67
2022/01/20 09:21:46;;;;;;;1.10;1.00;;;4.60;98.00;;;;;;5085142;28;20558;-67
2022/01/20 09:24:13;;;;;;;1.20;1.10;;;4.60;98.00;;;;;;5099860;28;20486;-66
2022/01/20 09:26:40;;;;;;;1.10;0.90;;;4.60;98.00;;;;;;5104793;28;20560;-66
2022/01/20 09:29:07;;;;;;;1.10;1.00;;;4.60;98.00;;;;;;5101831;28;20568;-66
2022/01/20 09:31:38;;;;;;;1.10;1.00;;;4.50;98.00;;;;;;5101511;28;20551;-66
2022/01/20 09:34:08;;;;;;;1.10;1.00;;;4.50;98.00;;;;;;5099870;28;20465;-70
2022/01/20 09:36:36;;;;;;;1.10;1.00;;;4.50;98.00;;;;;;5086068;28;20459;-69
2022/01/20 09:39:04;;;;;;;1.10;1.00;;;4.50;98.00;;;;;;5101429;28;20462;-69
2022/01/20 09:41:31;;;;;;;1.10;1.00;;;4.50;98.00;;;;;;5107623;28;20467;-66
2022/01/20 09:43:59;;;;;;;1.10;1.00;;;4.50;98.00;;;;;;5094144;28;20492;-66
2022/01/20 09:46:26;;;;;;;1.10;1.00;;;4.50;98.00;;;;;;5094185;28;20474;-65
2022/01/20 09:48:59;;;;;;;1.10;0.90;;;4.50;98.00;;;;;;5093789;28;21057;-66
2022/01/20 09:51:28;;;;;;;1.20;1.17;;;4.60;98.00;;;;;;5094229;28;20480;-66
2022/01/20 09:53:55;;;;;;;1.10;1.00;;;4.70;98.00;;;;;;5093902;28;20555;-66
2022/01/20 09:56:23;;;;;;;1.20;1.10;;;4.70;98.00;;;;;;5094108;28;20488;-66
2022/01/20 09:58:51;;;;;;;1.10;0.90;;;4.90;98.00;;;;;;5093787;28;20990;-66
2022/01/20 10:01:37;;;;;;;1.10;1.00;;;4.80;98.00;;;;;;5093809;28;20546;-66
2022/01/20 10:04:04;;;;;;;1.10;1.00;;;4.80;98.00;;;;;;5093778;28;20483;-66
2022/01/20 10:06:33;;;;;;;1.10;1.00;;;4.70;98.00;;;;;;5094088;28;20492;-67
2022/01/20 10:09:02;;;;;;;1.10;1.00;;;4.70;98.00;;;;;;5093965;28;20571;-66
2022/01/20 10:11:32;;;;;;;1.10;1.00;;;4.60;98.00;;;;;;5093944;28;20461;-66
2022/01/20 10:14:00;;;;;;;1.17;1.10;;;4.70;98.00;;;;;;5093828;28;20920;-66
2022/01/20 10:16:32;;;;;;;1.10;1.00;;;4.70;98.00;;;;;;5093698;28;20820;-66
2022/01/20 10:19:00;;;;;;;1.20;1.20;;;4.80;98.00;;;;;;5093776;28;20455;-66
2022/01/20 10:21:31;;;;;;;1.27;1.07;;;4.90;98.00;;;;;;5093685;28;20539;-66
2022/01/20 10:24:06;;;;;;;1.53;1.30;;;4.90;98.00;;;;;;5093580;28;20530;-67
2022/01/20 10:26:34;;;;;;;2.07;1.20;;;4.80;98.00;;;;;;5093078;28;20460;-65
2022/01/20 10:29:03;;;;;;;1.20;1.10;;;4.80;98.00;;;;;;5093570;28;20586;-66
2022/01/20 10:31:40;;;;;;;1.10;1.00;;;4.70;98.00;;;;;;5093185;28;20524;-66
2022/01/20 10:34:09;;;;;;;1.10;1.00;;;4.70;98.00;;;;;;5092834;28;20499;-66
2022/01/20 10:36:40;;;;;;;1.70;1.37;;;4.70;98.00;;;;;;5093062;28;20483;-66
2022/01/20 10:39:08;;;;;;;1.87;1.40;;;4.70;98.00;;;;;;5092959;28;20460;-66
2022/01/20 10:41:38;;;;;;;1.10;0.90;;;4.80;98.00;;;;;;5093156;28;20459;-66
2022/01/20 10:44:08;;;;;;;1.10;1.00;;;4.80;98.00;;;;;;5093108;28;20502;-66
2022/01/20 10:46:47;;;;;;;1.10;1.00;;;4.80;98.00;;;;;;5092673;28;20500;-66
2022/01/20 10:49:15;;;;;;;1.27;1.23;;;4.80;98.00;;;;;;5092741;28;20544;-66
2022/01/20 10:51:43;;;;;;;1.40;1.10;;;4.90;98.00;;;;;;5092871;28;20516;-66
2022/01/20 10:54:14;;;;;;;1.10;1.03;;;4.90;98.00;;;;;;5092664;28;20997;-66
2022/01/20 10:56:48;;;;;;;1.10;1.00;;;5.00;98.00;;;;;;5092697;28;20460;-65
2022/01/20 10:59:15;;;;;;;1.10;1.07;;;5.00;98.00;;;;;;5092820;28;20502;-66
2022/01/20 11:01:42;;;;;;;1.10;0.90;;;5.00;98.00;;;;;;5092333;28;20546;-66
2022/01/20 11:04:12;;;;;;;1.10;1.10;;;5.10;98.00;;;;;;5092713;28;20452;-66
2022/01/20 11:06:40;;;;;;;1.10;1.00;;;5.10;98.00;;;;;;5092553;28;20464;-65
2022/01/20 11:09:08;;;;;;;3.73;1.57;;;5.00;98.00;;;;;;5092434;28;20524;-66
2022/01/20 11:11:37;;;;;;;1.40;1.20;;;5.00;98.00;;;;;;5092640;28;20965;-66
2022/01/20 11:14:04;;;;;;;1.43;1.20;;;4.90;98.00;;;;;;5092315;28;20887;-66
2022/01/20 11:16:39;;;;;;;1.10;1.00;;;4.90;98.00;;;;;;5092350;28;20451;-66
2022/01/20 11:19:19;;;;;;;1.20;1.20;;;4.90;98.00;;;;;;5092387;28;20451;-66
2022/01/20 11:21:47;;;;;;;1.87;1.63;;;4.90;98.00;;;;;;5092545;28;20460;-65
2022/01/20 11:24:19;;;;;;;1.97;1.87;;;4.90;98.00;;;;;;5092404;28;20496;-66
2022/01/20 11:26:54;;;;;;;1.10;1.00;;;4.90;98.00;;;;;;5092362;28;20466;-66
2022/01/20 11:29:22;;;;;;;1.20;1.17;;;4.90;98.00;;;;;;5092199;28;20483;-65
2022/01/20 11:31:50;;;;;;;1.10;1.00;;;4.90;98.00;;;;;;5092284;28;21007;-66
2022/01/20 11:34:20;;;;;;;1.10;0.93;;;4.90;98.00;;;;;;5092330;28;20451;-66
2022/01/20 11:36:48;;;;;;;1.20;1.10;;;4.90;98.00;;;;;;5091352;28;20448;-66
2022/01/20 11:39:18;;;;;;;1.10;0.90;;;4.90;98.00;;;;;;5091976;28;20926;-66
2022/01/20 11:41:49;;;;;;;1.43;1.43;;;4.90;98.00;;;;;;5092123;28;20505;-66
2022/01/20 11:44:19;;;;;;;1.10;0.90;;;5.00;98.00;;;;;;5091938;28;20554;-66
2022/01/20 11:46:50;;;;;;;1.10;1.00;;;5.10;98.00;;;;;;5091780;28;20959;-65
2022/01/20 11:49:19;;;;;;;1.10;1.00;;;5.20;98.00;;;;;;5091751;28;20483;-65
2022/01/20 11:51:49;;;;;;;1.10;1.10;;;5.20;98.00;;;;;;5091737;28;20499;-65
2022/01/20 11:54:29;;;;;;;1.20;1.10;;;5.30;98.00;;;;;;5091721;28;20619;-66
2022/01/20 11:57:11;;;;;;;1.10;1.00;;;5.30;98.00;;;;;;5091434;28;20929;-66
2022/01/20 11:59:43;;;;;;;1.10;0.97;;;5.30;98.00;;;;;;5091592;28;20541;-65
2022/01/20 12:02:11;;;;;;;1.10;1.00;;;5.40;98.00;;;;;;5091471;28;20448;-66
2022/01/20 12:04:40;;;;;;;1.10;1.00;;;5.60;98.00;;;;;;5092140;28;20484;-65
2022/01/20 12:07:09;;;;;;;1.10;1.10;;;5.70;98.00;;;;;;5092263;28;20966;-65
2022/01/20 12:09:38;;;;;;;1.10;0.90;;;5.70;98.00;;;;;;5091865;28;20484;-66
2022/01/20 12:12:07;;;;;;;1.10;1.00;;;5.60;98.00;;;;;;5092270;28;20518;-66
2022/01/20 12:14:38;;;;;;;1.10;1.00;;;5.60;98.00;;;;;;5090930;28;21038;-65
2022/01/20 12:17:11;;;;;;;1.10;1.10;;;5.40;98.00;;;;;;5091836;28;20488;-65
2022/01/20 12:19:38;;;;;;;1.10;0.90;;;5.30;98.00;;;;;;5092092;28;20453;-65
2022/01/20 12:22:06;;;;;;;1.30;1.10;;;5.40;98.00;;;;;;5092096;28;20452;-66
2022/01/20 12:24:35;;;;;;;1.10;1.00;;;5.30;98.00;;;;;;5092419;28;20999;-66
2022/01/20 12:27:14;;;;;;;1.10;1.00;;;5.20;98.00;;;;;;5092434;28;20457;-66
2022/01/20 12:29:41;;;;;;;1.10;1.00;;;5.10;98.00;;;;;;5092597;28;20523;-66
2022/01/20 12:32:14;;;;;;;1.10;1.00;;;5.10;98.00;;;;;;5092241;28;20533;-66
2022/01/20 12:34:42;;;;;;;1.10;1.00;;;5.20;98.00;;;;;;5091383;28;20453;-66
2022/01/20 12:37:09;;;;;;;1.10;1.00;;;5.00;98.00;;;;;;5091171;28;20489;-66
2022/01/20 12:39:38;;;;;;;1.10;0.90;;;4.80;98.00;;;;;;5091305;28;20595;-65
2022/01/20 12:42:10;;;;;;;1.20;1.20;;;4.50;98.00;;;;;;5091770;28;20885;-66
2022/01/20 12:44:47;;;;;;;1.10;0.90;;;4.30;98.00;;;;;;5092185;28;20802;-66
2022/01/20 12:47:17;;;;;;;1.10;0.90;;;4.10;98.00;;;;;;5091764;28;20466;-66
2022/01/20 12:49:45;;;;;;;1.10;1.00;;;4.00;98.00;;;;;;5095525;28;20536;-66
2022/01/20 12:52:12;;;;;;;1.10;0.90;;;3.80;98.00;;;;;;5096361;28;20451;-66
2022/01/20 12:54:39;;;;;;;1.10;1.07;;;3.70;98.00;;;;;;5095021;28;20459;-66
2022/01/20 12:57:09;;;;;;;1.10;1.00;;;3.60;98.00;;;;;;5095722;28;20957;-66
2022/01/20 12:59:37;;;;;;;1.10;1.00;;;3.50;98.00;;;;;;5096207;28;20523;-66
2022/01/20 13:02:07;;;;;;;1.10;1.00;;;3.50;98.00;;;;;;5095578;28;20463;-66
2022/01/20 13:04:39;;;;;;;1.10;0.90;;;3.40;98.00;;;;;;5096070;28;20456;-66
2022/01/20 13:07:10;;;;;;;1.10;1.00;;;3.40;98.00;;;;;;5095642;28;20466;-66
2022/01/20 13:09:38;;;;;;;1.10;1.00;;;3.30;98.00;;;;;;5094451;28;20483;-66
2022/01/20 13:12:07;;;;;;;1.40;1.07;;;3.20;98.00;;;;;;5095283;28;20587;-66
2022/01/20 13:14:37;;;;;;;1.10;0.97;;;3.20;98.00;;;;;;5095718;28;20512;-66
2022/01/20 13:17:05;;;;;;;1.10;1.00;;;3.10;98.00;;;;;;5095293;28;20462;-66
2022/01/20 13:19:37;;;;;;;1.10;1.00;;;3.00;98.00;;;;;;5095475;28;20508;-66
2022/01/20 13:22:06;;;;;;;1.10;1.00;;;3.00;98.00;;;;;;5094261;28;20543;-66
2022/01/20 13:24:37;;;;;;;1.10;1.00;;;3.00;98.00;;;;;;5095489;28;20452;-66
2022/01/20 13:27:07;;;;;;;1.10;1.10;;;3.10;98.00;;;;;;5095197;28;20455;-66
2022/01/20 13:29:44;;;;;;;1.10;0.90;;;3.20;98.00;;;;;;5095281;28;20571;-66
2022/01/20 13:32:14;;;;;;;1.10;1.00;;;3.20;98.00;;;;;;5094967;28;20524;-66
2022/01/20 13:34:53;;;;;;;1.10;1.00;;;3.20;98.00;;;;;;5095199;28;20494;-66
2022/01/20 13:37:20;;;;;;;1.10;1.00;;;3.20;98.00;;;;;;5095083;28;20454;-66
2022/01/20 13:39:47;;;;;;;1.10;1.00;;;3.20;98.00;;;;;;5094613;28;20482;-66
2022/01/20 13:42:30;;;;;;;1.20;1.20;;;3.20;98.00;;;;;;5094492;28;20456;-66
2022/01/20 13:45:17;;;;;;;1.10;1.00;;;3.10;98.00;;;;;;5092781;28;20894;-67
2022/01/20 13:47:58;;;;;;;1.10;1.10;;;3.00;98.00;;;;;;5105425;28;20474;-68
2022/01/20 13:50:29;;;;;;;1.10;0.90;;;2.90;98.00;;;;;;5107857;28;20464;-68